createdAt,value
2023-04-16T00:00:11.453Z,100308.34
2023-04-16T00:03:00.775Z,100310.03
2023-04-16T00:05:29.611Z,100307.31
2023-04-16T00:07:58.533Z,100314.28
2023-04-16T00:10:27.205Z,100308.16
2023-04-16T00:12:56.131Z,100311.22
2023-04-16T00:15:26.137Z,100316.22
2023-04-16T00:17:55.148Z,100310.97
2023-04-16T00:20:23.862Z,100310.25
2023-04-16T00:22:52.950Z,100305.19
2023-04-16T00:25:21.824Z,100301.94
2023-04-16T00:27:50.778Z,100308.88
2023-04-16T00:30:19.635Z,100306.25
2023-04-16T00:32:49.964Z,100303.19
2023-04-16T00:35:18.861Z,100316.88
2023-04-16T00:37:47.765Z,100312.97
2023-04-16T00:40:16.425Z,100317.41
2023-04-16T00:42:45.634Z,100313.41
2023-04-16T00:45:14.369Z,100305.63
2023-04-16T00:47:43.652Z,100309.38
2023-04-16T00:50:15.269Z,100310.25
2023-04-16T00:52:44.841Z,100316.63
2023-04-16T00:55:13.636Z,100316.22
2023-04-16T00:57:42.702Z,100318.13
2023-04-16T01:00:13.112Z,100310.53
2023-04-16T01:02:42.570Z,100315.78
2023-04-16T01:05:11.689Z,100323.78
2023-04-16T01:07:42.019Z,100321.69
2023-04-16T01:10:11.062Z,100320.94
2023-04-16T01:12:39.956Z,100323.56
2023-04-16T01:15:11.346Z,100325.91
2023-04-16T01:17:40.628Z,100323.06
2023-04-16T01:20:10.194Z,100310.44
2023-04-16T01:22:40.471Z,100318.31
2023-04-16T01:25:09.537Z,100318.31
2023-04-16T01:27:38.907Z,100329.66
2023-04-16T01:30:09.487Z,100325.03
2023-04-16T01:32:49.716Z,100329.13
2023-04-16T01:35:19.202Z,100328.28
2023-04-16T01:37:51.736Z,100325.56
2023-04-16T01:40:20.976Z,100325.03
2023-04-16T01:42:51.137Z,100332.19
2023-04-16T01:45:19.973Z,100329.31
2023-04-16T01:47:51.331Z,100323.78
2023-04-16T01:50:20.574Z,100328.59
2023-04-16T01:52:51.119Z,100327.94
2023-04-16T01:55:20.112Z,100332.56
2023-04-16T01:57:49.019Z,100327.31
2023-04-16T02:00:18.005Z,100334.38
2023-04-16T02:02:50.237Z,100329.94
2023-04-16T02:05:27.397Z,100340.44
2023-04-16T02:07:57.691Z,100346.63
2023-04-16T02:10:26.442Z,100337.72
2023-04-16T02:12:56.545Z,100350.31
2023-04-16T02:15:25.416Z,100343.28
2023-04-16T02:17:57.034Z,100352.13
2023-04-16T02:20:27.276Z,100350.22
2023-04-16T02:23:02.186Z,100347.16
2023-04-16T02:25:31.337Z,100345.16
2023-04-16T02:28:00.804Z,100353.31
2023-04-16T02:30:48.452Z,100357.06
2023-04-16T02:33:20.295Z,100357.91
2023-04-16T02:35:57.043Z,100363.25
2023-04-16T02:38:27.302Z,100369.25
2023-04-16T02:40:56.275Z,100372.28
2023-04-16T02:43:25.204Z,100373.88
2023-04-16T02:45:53.853Z,100375.75
2023-04-16T02:48:22.853Z,100377.44
2023-04-16T02:50:51.636Z,100380.63
2023-04-16T02:53:21.455Z,100381.09
2023-04-16T02:55:54.611Z,100378.28
2023-04-16T02:58:25.780Z,100383.72
2023-04-16T03:00:56.213Z,100388.44
2023-04-16T03:03:25.498Z,100386.66
2023-04-16T03:05:54.174Z,100392.19
2023-04-16T03:08:23.193Z,100395.84
2023-04-16T03:10:53.222Z,100393.53
2023-04-16T03:13:22.419Z,100390.03
2023-04-16T03:15:51.349Z,100396.06
2023-04-16T03:18:20.350Z,100393.63
2023-04-16T03:20:53.444Z,100387.63
2023-04-16T03:23:22.408Z,100382.75
2023-04-16T03:25:53.490Z,100388.00
2023-04-16T03:28:22.372Z,100393.91
2023-04-16T03:30:54.215Z,100394.75
2023-04-16T03:33:23.257Z,100397.00
2023-04-16T03:36:00.187Z,100393.81
2023-04-16T03:38:32.666Z,100394.09
2023-04-16T03:41:03.082Z,100398.97
2023-04-16T03:43:34.965Z,100404.88
2023-04-16T03:46:03.730Z,100405.72
2023-04-16T03:48:32.761Z,100402.81
2023-04-16T03:51:01.574Z,100399.97
2023-04-16T03:53:31.487Z,100401.56
2023-04-16T03:56:00.193Z,100405.06
2023-04-16T03:58:32.712Z,100411.22
2023-04-16T04:01:01.500Z,100411.41
2023-04-16T04:03:30.762Z,100406.16
2023-04-16T04:05:59.616Z,100409.25
2023-04-16T04:08:31.991Z,100406.53
2023-04-16T04:11:00.606Z,100409.34
2023-04-16T04:13:30.453Z,100411.03
2023-04-16T04:16:01.636Z,100415.34
2023-04-16T04:18:31.374Z,100419.84
2023-04-16T04:21:01.480Z,100421.53
2023-04-16T04:23:32.439Z,100417.78
2023-04-16T04:26:03.849Z,100421.13
2023-04-16T04:28:34.142Z,100430.63
2023-04-16T04:31:04.309Z,100420.84
2023-04-16T04:33:33.756Z,100425.00
2023-04-16T04:36:02.442Z,100436.06
2023-04-16T04:38:31.908Z,100439.34
2023-04-16T04:41:00.887Z,100441.13
2023-04-16T04:43:36.329Z,100437.47
2023-04-16T04:46:06.624Z,100443.91
2023-04-16T04:48:36.028Z,100444.75
2023-04-16T04:51:05.501Z,100445.59
2023-04-16T04:53:35.315Z,100450.00
2023-04-16T04:56:12.437Z,100454.97
2023-04-16T04:58:42.791Z,100453.72
2023-04-16T05:01:12.898Z,100455.72
2023-04-16T05:03:41.999Z,100453.44
2023-04-16T05:06:10.692Z,100458.41
2023-04-16T05:08:39.619Z,100458.63
2023-04-16T05:11:08.217Z,100456.53
2023-04-16T05:13:37.107Z,100456.97
2023-04-16T05:16:06.626Z,100461.31
2023-04-16T05:18:36.936Z,100465.81
2023-04-16T05:21:06.489Z,100465.81
2023-04-16T05:23:35.493Z,100463.09
2023-04-16T05:26:04.181Z,100466.03
2023-04-16T05:28:33.885Z,100472.94
2023-04-16T05:31:02.598Z,100471.81
2023-04-16T05:33:31.616Z,100469.19
2023-04-16T05:36:01.595Z,100471.09
2023-04-16T05:38:30.641Z,100477.09
2023-04-16T05:41:00.133Z,100481.06
2023-04-16T05:43:29.141Z,100482.63
2023-04-16T05:45:57.831Z,100484.63
2023-04-16T05:48:26.815Z,100478.09
2023-04-16T05:50:55.452Z,100481.81
2023-04-16T05:53:25.974Z,100481.59
2023-04-16T05:55:54.754Z,100484.97
2023-04-16T05:58:23.655Z,100495.69
2023-04-16T06:00:52.405Z,100498.16
2023-04-16T06:03:21.459Z,100492.31
2023-04-16T06:05:50.234Z,100498.69
2023-04-16T06:08:19.244Z,100501.75
2023-04-16T06:10:49.810Z,100502.09
2023-04-16T06:13:18.822Z,100500.66
2023-04-16T06:15:47.983Z,100502.47
2023-04-16T06:18:16.931Z,100511.09
2023-04-16T06:20:45.702Z,100508.81
2023-04-16T06:23:14.786Z,100513.97
2023-04-16T06:25:43.390Z,100515.00
2023-04-16T06:28:13.688Z,100524.41
2023-04-16T06:30:44.493Z,100523.34
2023-04-16T06:33:13.914Z,100526.84
2023-04-16T06:35:42.582Z,100529.84
2023-04-16T06:38:11.553Z,100522.06
2023-04-16T06:40:40.381Z,100518.31
2023-04-16T06:43:09.304Z,100518.50
2023-04-16T06:45:39.285Z,100516.63
2023-04-16T06:48:08.399Z,100518.75
2023-04-16T06:50:37.656Z,100519.00
2023-04-16T06:53:06.687Z,100525.91
2023-04-16T06:55:35.662Z,100518.22
2023-04-16T06:58:04.708Z,100524.88
2023-04-16T07:00:33.609Z,100526.03
2023-04-16T07:03:04.162Z,100524.44
2023-04-16T07:05:33.193Z,100530.06
2023-04-16T07:08:02.121Z,100534.16
2023-04-16T07:10:31.361Z,100537.72
2023-04-16T07:13:01.589Z,100538.16
2023-04-16T07:15:30.481Z,100540.06
2023-04-16T07:17:59.504Z,100545.31
2023-04-16T07:20:29.666Z,100547.34
2023-04-16T07:22:59.422Z,100547.75
2023-04-16T07:25:28.156Z,100551.13
2023-04-16T07:27:57.184Z,100556.31
2023-04-16T07:30:25.909Z,100566.41
2023-04-16T07:32:55.841Z,100566.41
2023-04-16T07:35:24.540Z,100574.72
2023-04-16T07:37:54.812Z,100578.09
2023-04-16T07:40:24.987Z,100574.41
2023-04-16T07:42:54.161Z,100566.06
2023-04-16T07:45:22.914Z,100567.66
2023-04-16T07:47:51.953Z,100569.03
2023-04-16T07:50:20.840Z,100565.56
2023-04-16T07:52:49.856Z,100575.03
2023-04-16T07:55:19.937Z,100578.69
2023-04-16T07:57:48.985Z,100580.91
2023-04-16T08:00:18.004Z,100588.25
2023-04-16T08:02:47.161Z,100592.59
2023-04-16T08:05:15.950Z,100592.84
2023-04-16T08:07:44.901Z,100598.44
2023-04-16T08:10:13.993Z,100607.28
2023-04-16T08:12:44.545Z,100600.31
2023-04-16T08:15:13.555Z,100608.97
2023-04-16T08:17:42.634Z,100601.75
2023-04-16T08:20:14.983Z,100606.63
2023-04-16T08:22:46.840Z,100608.38
2023-04-16T08:25:16.249Z,100606.69
2023-04-16T08:27:46.541Z,100604.72
2023-04-16T08:30:16.423Z,100605.63
2023-04-16T08:32:47.374Z,100606.91
2023-04-16T08:35:17.576Z,100605.84
2023-04-16T08:37:46.599Z,100602.44
2023-04-16T08:40:15.304Z,100609.81
2023-04-16T08:42:55.811Z,100607.25
2023-04-16T08:45:28.490Z,100607.88
2023-04-16T08:47:57.936Z,100611.88
2023-04-16T08:50:28.398Z,100618.81
2023-04-16T08:53:01.356Z,100612.25
2023-04-16T08:55:38.614Z,100619.63
2023-04-16T08:58:14.597Z,100619.72
2023-04-16T09:00:46.130Z,100626.09
2023-04-16T09:03:15.204Z,100628.06
2023-04-16T09:05:45.219Z,100628.06
2023-04-16T09:08:14.362Z,100622.81
2023-04-16T09:10:44.423Z,100624.28
2023-04-16T09:13:17.003Z,100624.69
2023-04-16T09:15:46.048Z,100626.34
2023-04-16T09:18:14.949Z,100631.50
2023-04-16T09:20:43.735Z,100625.50
2023-04-16T09:23:12.791Z,100629.53
2023-04-16T09:25:41.476Z,100639.75
2023-04-16T09:28:11.048Z,100641.66
2023-04-16T09:30:41.321Z,100646.84
2023-04-16T09:33:22.590Z,100647.78
2023-04-16T09:35:53.992Z,100648.75
2023-04-16T09:38:23.193Z,100648.97
2023-04-16T09:41:08.435Z,100650.00
2023-04-16T09:43:38.130Z,100644.81
2023-04-16T09:46:08.732Z,100648.66
2023-04-16T09:48:38.280Z,100653.31
2023-04-16T09:51:08.363Z,100655.38
2023-04-16T09:53:37.377Z,100659.72
2023-04-16T09:56:08.060Z,100669.38
2023-04-16T09:58:38.544Z,100666.84
2023-04-16T10:01:11.488Z,100671.44
2023-04-16T10:03:42.061Z,100660.94
2023-04-16T10:06:18.154Z,100666.75
2023-04-16T10:08:50.468Z,100672.31
2023-04-16T10:11:21.945Z,100670.66
2023-04-16T10:13:51.532Z,100677.78
2023-04-16T10:16:23.518Z,100677.16
2023-04-16T10:18:54.077Z,100668.97
2023-04-16T10:21:23.591Z,100677.00
2023-04-16T10:23:53.823Z,100680.75
2023-04-16T10:26:23.425Z,100678.38
2023-04-16T10:28:53.040Z,100681.31
2023-04-16T10:31:23.990Z,100685.88
2023-04-16T10:33:53.227Z,100689.22
2023-04-16T10:36:27.734Z,100691.47
2023-04-16T10:39:00.948Z,100685.88
2023-04-16T10:41:30.309Z,100687.56
2023-04-16T10:44:09.716Z,100692.03
2023-04-16T10:46:42.819Z,100692.91
2023-04-16T10:49:17.794Z,100689.53
2023-04-16T10:51:55.980Z,100682.09
2023-04-16T10:54:27.703Z,100694.25
2023-04-16T10:57:01.640Z,100699.00
2023-04-16T10:59:34.978Z,100694.56
2023-04-16T11:02:10.683Z,100697.81
2023-04-16T11:04:43.483Z,100695.53
2023-04-16T11:07:20.604Z,100696.47
2023-04-16T11:09:56.248Z,100702.84
2023-04-16T11:12:29.081Z,100700.91
2023-04-16T11:15:02.423Z,100712.09
2023-04-16T11:17:37.732Z,100711.47
2023-04-16T11:20:19.001Z,100711.69
2023-04-16T11:22:49.373Z,100707.72
2023-04-16T11:25:22.691Z,100712.16
2023-04-16T11:27:53.166Z,100710.34
2023-04-16T11:30:32.000Z,100710.84
2023-04-16T11:33:04.207Z,100714.34
2023-04-16T11:35:33.477Z,100710.84
2023-04-16T11:38:02.366Z,100714.56
2023-04-16T11:40:32.325Z,100712.78
2023-04-16T11:43:04.343Z,100720.34
2023-04-16T11:45:33.411Z,100710.06
2023-04-16T11:48:03.767Z,100705.00
2023-04-16T11:50:32.851Z,100715.47
2023-04-16T11:53:06.793Z,100718.00
2023-04-16T11:55:45.383Z,100705.75
2023-04-16T11:58:15.961Z,100698.22
2023-04-16T12:00:46.204Z,100695.41
2023-04-16T12:03:16.534Z,100697.34
2023-04-16T12:05:47.290Z,100694.78
2023-04-16T12:08:31.779Z,100693.16
2023-04-16T12:11:00.868Z,100694.44
2023-04-16T12:13:29.552Z,100698.72
2023-04-16T12:15:58.655Z,100695.63
2023-04-16T12:18:28.830Z,100699.00
2023-04-16T12:20:57.929Z,100699.91
2023-04-16T12:23:30.092Z,100699.78
2023-04-16T12:26:02.531Z,100691.00
2023-04-16T12:28:33.525Z,100695.31
2023-04-16T12:31:03.417Z,100694.94
2023-04-16T12:33:33.656Z,100687.16
2023-04-16T12:36:04.665Z,100689.06
2023-04-16T12:38:33.314Z,100684.56
2023-04-16T12:41:02.427Z,100688.69
2023-04-16T12:43:31.270Z,100680.88
2023-04-16T12:46:02.229Z,100682.28
2023-04-16T12:48:33.895Z,100684.81
2023-04-16T12:51:02.946Z,100680.03
2023-04-16T12:53:31.765Z,100668.00
2023-04-16T12:56:00.679Z,100671.03
2023-04-16T12:58:29.485Z,100682.22
2023-04-16T13:00:58.531Z,100670.19
2023-04-16T13:03:27.515Z,100674.19
2023-04-16T13:05:58.156Z,100676.78
2023-04-16T13:08:27.044Z,100677.03
2023-04-16T13:10:55.978Z,100676.72
2023-04-16T13:13:24.682Z,100674.47
2023-04-16T13:15:53.685Z,100674.56
2023-04-16T13:18:23.064Z,100672.53
2023-04-16T13:20:52.083Z,100663.75
2023-04-16T13:23:22.266Z,100666.47
2023-04-16T13:25:51.244Z,100665.75
2023-04-16T13:28:20.089Z,100668.44
2023-04-16T13:30:49.408Z,100666.94
2023-04-16T13:33:18.269Z,100669.97
2023-04-16T13:35:47.473Z,100672.63
2023-04-16T13:38:16.636Z,100678.78
2023-04-16T13:40:47.045Z,100674.59
2023-04-16T13:43:17.551Z,100673.31
2023-04-16T13:45:47.069Z,100679.16
2023-04-16T13:48:15.659Z,100676.63
2023-04-16T13:50:44.589Z,100690.44
2023-04-16T13:53:13.232Z,100684.41
2023-04-16T13:55:42.249Z,100691.06
2023-04-16T13:58:12.558Z,100689.19
2023-04-16T14:00:41.524Z,100689.47
2023-04-16T14:03:10.309Z,100688.50
2023-04-16T14:05:39.428Z,100687.06
2023-04-16T14:08:08.263Z,100685.13
2023-04-16T14:10:37.384Z,100682.06
2023-04-16T14:13:06.020Z,100683.50
2023-04-16T14:15:36.372Z,100678.94
2023-04-16T14:18:05.804Z,100679.50
2023-04-16T14:20:34.878Z,100675.75
2023-04-16T14:23:04.091Z,100690.03
2023-04-16T14:25:33.449Z,100686.22
2023-04-16T14:28:02.315Z,100675.28
2023-04-16T14:30:31.331Z,100682.22
2023-04-16T14:33:01.578Z,100686.69
2023-04-16T14:35:30.729Z,100682.47
2023-04-16T14:37:59.440Z,100685.09
2023-04-16T14:40:28.423Z,100682.63
2023-04-16T14:42:57.096Z,100686.28
2023-04-16T14:45:30.001Z,100688.16
2023-04-16T14:48:00.150Z,100687.13
2023-04-16T14:50:29.463Z,100681.94
2023-04-16T14:52:58.408Z,100682.72
2023-04-16T14:55:28.031Z,100694.03
2023-04-16T14:57:57.213Z,100692.81
2023-04-16T15:00:26.438Z,100687.06
2023-04-16T15:02:55.448Z,100692.78
2023-04-16T15:05:26.192Z,100700.59
2023-04-16T15:07:55.152Z,100693.38
2023-04-16T15:10:24.421Z,100705.78
2023-04-16T15:12:53.160Z,100699.53
2023-04-16T15:15:22.406Z,100698.69
2023-04-16T15:17:53.359Z,100696.78
2023-04-16T15:20:22.539Z,100699.88
2023-04-16T15:22:52.584Z,100710.34
2023-04-16T15:25:21.677Z,100699.25
2023-04-16T15:27:50.362Z,100703.56
2023-04-16T15:30:19.819Z,100701.22
2023-04-16T15:32:48.560Z,100705.66
2023-04-16T15:35:17.715Z,100709.25
2023-04-16T15:37:46.405Z,100707.53
2023-04-16T15:40:18.875Z,100707.22
2023-04-16T15:42:47.847Z,100710.38
2023-04-16T15:45:16.770Z,100706.31
2023-04-16T15:47:48.093Z,100709.81
2023-04-16T15:50:17.287Z,100716.06
2023-04-16T15:52:46.567Z,100716.50
2023-04-16T15:55:18.412Z,100714.53
2023-04-16T15:57:47.078Z,100715.06
2023-04-16T16:00:17.271Z,100714.72
2023-04-16T16:02:47.948Z,100715.34
2023-04-16T16:05:18.704Z,100719.53
2023-04-16T16:07:47.587Z,100718.50
2023-04-16T16:10:17.976Z,100724.06
2023-04-16T16:12:46.781Z,100727.66
2023-04-16T16:15:15.775Z,100726.50
2023-04-16T16:17:44.474Z,100731.38
2023-04-16T16:20:14.680Z,100736.34
2023-04-16T16:22:45.347Z,100735.06
2023-04-16T16:25:14.384Z,100745.97
2023-04-16T16:27:44.497Z,100739.63
2023-04-16T16:30:14.655Z,100744.25
2023-04-16T16:32:44.396Z,100746.19
2023-04-16T16:35:15.119Z,100752.31
2023-04-16T16:37:44.034Z,100745.97
2023-04-16T16:40:13.251Z,100755.59
2023-04-16T16:42:43.328Z,100759.47
2023-04-16T16:45:12.911Z,100750.94
2023-04-16T16:47:41.629Z,100768.78
2023-04-16T16:50:12.456Z,100770.22
2023-04-16T16:52:41.331Z,100776.09
2023-04-16T16:55:11.465Z,100777.56
2023-04-16T16:57:40.301Z,100780.78
2023-04-16T17:00:14.332Z,100790.53
2023-04-16T17:02:43.739Z,100785.72
2023-04-16T17:05:13.682Z,100781.03
2023-04-16T17:07:42.360Z,100787.16
2023-04-16T17:10:13.389Z,100790.13
2023-04-16T17:12:42.218Z,100784.25
2023-04-16T17:15:13.308Z,100791.31
2023-04-16T17:17:42.087Z,100791.78
2023-04-16T17:20:12.548Z,100786.44
2023-04-16T17:22:41.374Z,100799.28
2023-04-16T17:25:11.070Z,100799.38
2023-04-16T17:27:39.732Z,100804.06
2023-04-16T17:30:10.303Z,100803.56
2023-04-16T17:32:40.407Z,100807.41
2023-04-16T17:35:11.027Z,100810.16
2023-04-16T17:37:39.710Z,100811.78
2023-04-16T17:40:10.236Z,100805.28
2023-04-16T17:42:38.937Z,100814.31
2023-04-16T17:45:09.466Z,100818.38
2023-04-16T17:47:39.770Z,100821.22
2023-04-16T17:50:10.332Z,100817.09
2023-04-16T17:52:39.676Z,100816.19
2023-04-16T17:55:09.307Z,100827.00
2023-04-16T17:57:38.121Z,100825.00
2023-04-16T18:00:11.146Z,100828.81
2023-04-16T18:02:44.218Z,100831.56
2023-04-16T18:05:13.603Z,100837.25
2023-04-16T18:07:43.698Z,100829.44
2023-04-16T18:10:12.695Z,100840.34
2023-04-16T18:12:41.425Z,100848.28
2023-04-16T18:15:11.981Z,100835.66
2023-04-16T18:17:40.699Z,100848.22
2023-04-16T18:20:12.733Z,100850.34
2023-04-16T18:22:41.412Z,100846.34
2023-04-16T18:25:10.704Z,100857.00
2023-04-16T18:27:39.491Z,100852.31
2023-04-16T18:30:18.992Z,100849.06
2023-04-16T18:33:16.607Z,100861.81
2023-04-16T18:35:42.398Z,100856.88
2023-04-16T18:38:11.226Z,100858.44
2023-04-16T18:40:40.721Z,100860.53
2023-04-16T18:43:09.403Z,100858.34
2023-04-16T18:45:38.353Z,100859.69
2023-04-16T18:48:07.265Z,100862.31
2023-04-16T18:50:36.998Z,100865.19
2023-04-16T18:53:07.042Z,100849.66
2023-04-16T18:55:35.990Z,100858.84
2023-04-16T18:58:04.649Z,100871.03
2023-04-16T19:00:33.785Z,100862.06
2023-04-16T19:03:07.078Z,100856.03
2023-04-16T19:05:36.373Z,100867.19
2023-04-16T19:08:06.761Z,100863.06
2023-04-16T19:10:35.777Z,100865.88
2023-04-16T19:13:04.355Z,100866.22
2023-04-16T19:15:34.917Z,100867.44
2023-04-16T19:18:03.951Z,100865.75
2023-04-16T19:20:35.600Z,100864.25
2023-04-16T19:23:06.064Z,100858.44
2023-04-16T19:25:34.961Z,100872.75
2023-04-16T19:28:04.029Z,100868.81
2023-04-16T19:30:33.054Z,100870.72
2023-04-16T19:33:01.876Z,100870.31
2023-04-16T19:35:31.109Z,100861.88
2023-04-16T19:37:59.820Z,100866.94
2023-04-16T19:40:30.271Z,100864.50
2023-04-16T19:42:58.918Z,100865.69
2023-04-16T19:45:29.140Z,100864.88
2023-04-16T19:47:58.102Z,100862.41
2023-04-16T19:50:27.161Z,100859.88
2023-04-16T19:52:55.818Z,100862.91
2023-04-16T19:55:24.766Z,100865.81
2023-04-16T19:57:54.786Z,100868.56
2023-04-16T20:00:23.982Z,100867.81
2023-04-16T20:02:52.736Z,100861.97
2023-04-16T20:05:21.777Z,100862.16
2023-04-16T20:07:52.633Z,100862.44
2023-04-16T20:10:22.519Z,100859.16
2023-04-16T20:12:51.407Z,100864.41
2023-04-16T20:15:21.759Z,100862.84
2023-04-16T20:17:50.586Z,100866.38
2023-04-16T20:20:19.993Z,100866.69
2023-04-16T20:22:48.718Z,100865.47
2023-04-16T20:25:18.889Z,100865.06
2023-04-16T20:27:47.687Z,100865.16
2023-04-16T20:30:16.806Z,100864.50
2023-04-16T20:32:46.851Z,100860.09
2023-04-16T20:35:15.941Z,100865.56
2023-04-16T20:37:44.648Z,100868.28
2023-04-16T20:40:15.050Z,100869.13
2023-04-16T20:42:46.286Z,100860.38
2023-04-16T20:45:15.516Z,100868.63
2023-04-16T20:47:44.604Z,100865.34
2023-04-16T20:50:15.070Z,100876.78
2023-04-16T20:52:43.979Z,100868.16
2023-04-16T20:55:12.945Z,100867.31
2023-04-16T20:57:41.539Z,100870.97
2023-04-16T21:00:12.345Z,100865.03
2023-04-16T21:02:41.199Z,100868.72
2023-04-16T21:05:14.176Z,100863.38
2023-04-16T21:07:44.305Z,100853.13
2023-04-16T21:10:20.112Z,100858.56
2023-04-16T21:12:49.093Z,100855.19
2023-04-16T21:15:18.291Z,100859.69
2023-04-16T21:17:47.044Z,100856.09
2023-04-16T21:20:16.356Z,100859.94
2023-04-16T21:22:46.354Z,100863.13
2023-04-16T21:25:16.064Z,100862.16
2023-04-16T21:27:44.665Z,100857.00
2023-04-16T21:30:15.488Z,100855.41
2023-04-16T21:32:44.434Z,100855.84
2023-04-16T21:35:13.336Z,100857.56
2023-04-16T21:37:42.242Z,100854.16
2023-04-16T21:40:13.243Z,100868.16
2023-04-16T21:42:42.396Z,100870.03
2023-04-16T21:45:12.238Z,100863.16
2023-04-16T21:47:41.162Z,100859.59
2023-04-16T21:50:11.121Z,100858.56
2023-04-16T21:52:40.853Z,100862.22
2023-04-16T21:55:12.174Z,100867.47
2023-04-16T21:57:40.898Z,100865.53
2023-04-16T22:00:13.975Z,100862.81
2023-04-16T22:02:43.547Z,100860.00
2023-04-16T22:05:12.755Z,100862.34
2023-04-16T22:07:41.738Z,100856.25
2023-04-16T22:10:15.035Z,100860.66
2023-04-16T22:12:45.751Z,100862.34
2023-04-16T22:15:15.670Z,100859.06
2023-04-16T22:17:44.416Z,100856.88
2023-04-16T22:20:13.803Z,100857.91
2023-04-16T22:22:43.207Z,100853.69
2023-04-16T22:25:13.696Z,100865.03
2023-04-16T22:27:42.442Z,100868.50
2023-04-16T22:30:13.232Z,100862.56
2023-04-16T22:32:41.918Z,100867.16
2023-04-16T22:35:12.582Z,100865.44
2023-04-16T22:37:41.431Z,100864.78
2023-04-16T22:40:11.905Z,100869.19
2023-04-16T22:42:41.960Z,100868.53
2023-04-16T22:45:12.724Z,100859.72
2023-04-16T22:47:41.706Z,100866.81
2023-04-16T22:50:12.616Z,100869.66
2023-04-16T22:52:41.392Z,100868.88
2023-04-16T22:55:10.844Z,100863.00
2023-04-16T22:57:40.962Z,100866.56
2023-04-16T23:00:15.887Z,100864.13
2023-04-16T23:02:45.305Z,100866.00
2023-04-16T23:05:14.428Z,100862.63
2023-04-16T23:07:43.063Z,100856.56
2023-04-16T23:10:12.387Z,100857.34
2023-04-16T23:12:42.371Z,100861.75
2023-04-16T23:15:12.369Z,100862.78
2023-04-16T23:17:41.098Z,100860.22
2023-04-16T23:20:12.299Z,100861.81
2023-04-16T23:22:41.415Z,100858.88
2023-04-16T23:25:11.159Z,100856.16
2023-04-16T23:27:41.736Z,100857.16
2023-04-16T23:30:11.726Z,100852.56
2023-04-16T23:32:40.466Z,100854.19
2023-04-16T23:35:10.916Z,100856.53
2023-04-16T23:37:39.552Z,100850.16
2023-04-16T23:40:10.412Z,100837.84
2023-04-16T23:42:39.069Z,100848.09
2023-04-16T23:45:11.171Z,100845.56
2023-04-16T23:47:40.229Z,100841.91
2023-04-16T23:50:10.279Z,100844.34
2023-04-16T23:52:39.000Z,100847.75
2023-04-16T23:55:08.826Z,100842.22
2023-04-16T23:57:38.716Z,100847.28
